Time;durP1;ratioP1;P1;durP2;ratioP2;P2;SDS_P1;SDS_P2;PMS_P1;PMS_P2;Temp;Humidity;BMP_temperature;BMP_pressure;BME280_temperature;BME280_humidity;BME280_pressure;Samples;Min_cycle;Max_cycle;Signal;HPM_P1;HPM_P2
2021/12/29 00:01:55;;;;;;;1.40;0.80;;;4.50;99.90;;;;;;5084290;28;20547;-58
2021/12/29 00:04:36;;;;;;;1.75;1.15;;;4.60;99.90;;;;;;5082448;27;20528;-59
2021/12/29 00:07:15;;;;;;;3.25;1.45;;;4.60;99.90;;;;;;5084396;28;20561;-57
2021/12/29 00:09:55;;;;;;;1.30;0.98;;;4.60;99.90;;;;;;5085108;28;20541;-58
2021/12/29 00:12:40;;;;;;;4.05;1.33;;;4.60;99.90;;;;;;5104814;27;20542;-58
2021/12/29 00:15:21;;;;;;;2.50;0.77;;;4.60;99.90;;;;;;5083418;27;20558;-58
2021/12/29 00:18:01;;;;;;;2.03;0.90;;;4.70;99.90;;;;;;5084301;28;20691;-57
2021/12/29 00:20:40;;;;;;;1.42;1.33;;;4.70;99.90;;;;;;5084262;28;21180;-57
2021/12/29 00:23:20;;;;;;;1.83;0.75;;;4.70;99.90;;;;;;5084211;28;20671;-58
2021/12/29 00:26:01;;;;;;;2.53;0.70;;;4.80;99.90;;;;;;5145430;27;20684;-58
2021/12/29 00:28:40;;;;;;;1.67;0.82;;;4.80;99.90;;;;;;5085093;27;20543;-56
2021/12/29 00:31:20;;;;;;;0.77;0.68;;;4.80;99.90;;;;;;5085059;27;20683;-59
2021/12/29 00:34:00;;;;;;;1.23;0.82;;;4.80;99.90;;;;;;5084323;28;20570;-57
2021/12/29 00:36:39;;;;;;;1.75;1.35;;;4.80;99.90;;;;;;5145692;27;21055;-58
2021/12/29 00:39:19;;;;;;;1.85;1.13;;;4.80;99.90;;;;;;5125338;27;20536;-57
2021/12/29 00:41:59;;;;;;;1.92;0.93;;;4.80;99.90;;;;;;5084711;27;20664;-57
2021/12/29 00:44:39;;;;;;;1.02;0.80;;;4.80;99.90;;;;;;5144726;27;20666;-58
2021/12/29 00:47:19;;;;;;;1.33;0.65;;;4.80;99.90;;;;;;5084828;27;20551;-58
2021/12/29 00:49:59;;;;;;;1.05;0.90;;;4.80;99.90;;;;;;5085023;28;20664;-57
2021/12/29 00:52:38;;;;;;;1.85;0.90;;;4.80;99.90;;;;;;5125281;27;20535;-58
2021/12/29 00:55:19;;;;;;;1.67;1.00;;;4.80;99.90;;;;;;5083934;28;20540;-58
2021/12/29 00:57:58;;;;;;;0.80;0.60;;;4.80;99.90;;;;;;5084621;27;20573;-58
2021/12/29 01:00:40;;;;;;;1.40;0.73;;;4.80;99.90;;;;;;5125878;27;20548;-58
2021/12/29 01:03:19;;;;;;;1.00;0.88;;;4.80;99.90;;;;;;5145081;27;20542;-57
2021/12/29 01:05:59;;;;;;;1.40;0.82;;;4.90;99.90;;;;;;5083090;28;20608;-57
2021/12/29 01:08:39;;;;;;;1.48;0.75;;;4.90;99.90;;;;;;5084658;27;20547;-58
2021/12/29 01:11:19;;;;;;;0.28;0.28;;;5.00;99.90;;;;;;5146359;27;20697;-58
2021/12/29 01:13:59;;;;;;;1.25;0.50;;;5.00;99.90;;;;;;5084054;28;20969;-58
2021/12/29 01:16:39;;;;;;;0.57;0.47;;;5.10;99.90;;;;;;5084808;27;20814;-57
2021/12/29 01:19:21;;;;;;;1.02;0.40;;;5.10;99.90;;;;;;5084672;28;20652;-58
2021/12/29 01:22:02;;;;;;;0.93;0.80;;;5.10;99.90;;;;;;5125568;27;20548;-59
2021/12/29 01:24:45;;;;;;;1.15;0.60;;;5.20;99.90;;;;;;5124080;27;20540;-57
2021/12/29 01:27:26;;;;;;;1.27;0.80;;;5.30;99.90;;;;;;5084562;27;20675;-57
2021/12/29 01:30:10;;;;;;;1.13;0.47;;;5.20;99.90;;;;;;5084708;27;20544;-59
2021/12/29 01:32:50;;;;;;;0.95;0.47;;;5.20;99.90;;;;;;5084474;28;20679;-57
2021/12/29 01:35:30;;;;;;;0.70;0.40;;;5.20;99.90;;;;;;5083765;28;21028;-58
2021/12/29 01:38:11;;;;;;;2.30;0.20;;;5.10;99.90;;;;;;5146305;27;20665;-58
2021/12/29 01:40:50;;;;;;;0.82;0.70;;;5.10;99.90;;;;;;5104667;27;21077;-58
2021/12/29 01:43:30;;;;;;;0.98;0.82;;;4.90;99.90;;;;;;5084197;28;20667;-58
2021/12/29 01:46:09;;;;;;;0.57;0.47;;;4.70;99.90;;;;;;5144993;27;20672;-59
2021/12/29 01:48:49;;;;;;;1.23;0.20;;;4.70;99.90;;;;;;5105596;27;20546;-58
2021/12/29 01:51:30;;;;;;;1.48;0.60;;;4.70;99.90;;;;;;5084729;27;20902;-58
2021/12/29 01:54:17;;;;;;;0.95;0.40;;;4.80;99.90;;;;;;5084907;27;20715;-57
2021/12/29 01:56:59;;;;;;;1.40;0.43;;;4.80;99.90;;;;;;5084836;27;20555;-57
2021/12/29 01:59:38;;;;;;;1.80;0.60;;;5.00;99.90;;;;;;5146095;27;21050;-58
2021/12/29 02:02:19;;;;;;;0.93;0.63;;;5.00;99.90;;;;;;5105107;27;20537;-58
2021/12/29 02:04:58;;;;;;;1.77;0.77;;;5.10;99.90;;;;;;5079451;28;20998;-58
2021/12/29 02:07:38;;;;;;;1.20;0.47;;;5.10;99.90;;;;;;5148979;27;20555;-57
2021/12/29 02:10:20;;;;;;;0.68;0.50;;;5.20;99.90;;;;;;5084459;28;20571;-57
2021/12/29 02:13:00;;;;;;;1.23;0.50;;;5.10;99.90;;;;;;5084756;27;20532;-58
2021/12/29 02:15:40;;;;;;;2.22;0.77;;;5.10;99.90;;;;;;5083856;28;20848;-57
2021/12/29 02:18:21;;;;;;;2.10;0.40;;;5.00;99.90;;;;;;5145923;27;21216;-57
2021/12/29 02:21:00;;;;;;;0.85;0.32;;;5.00;99.90;;;;;;5145884;27;21152;-57
2021/12/29 02:23:55;;;;;;;1.67;1.10;;;4.90;99.90;;;;;;5084056;28;20660;-57
2021/12/29 02:26:38;;;;;;;0.35;0.35;;;4.80;99.90;;;;;;5083778;28;20664;-57
2021/12/29 02:29:19;;;;;;;2.00;0.30;;;4.80;99.90;;;;;;5084361;28;21027;-58
2021/12/29 02:31:58;;;;;;;0.30;0.30;;;4.90;99.90;;;;;;5146246;27;20539;-57
2021/12/29 02:34:38;;;;;;;0.80;0.55;;;5.00;99.90;;;;;;5083264;27;20577;-57
2021/12/29 02:37:20;;;;;;;0.45;0.38;;;5.00;99.90;;;;;;5084691;28;20636;-58
2021/12/29 02:39:59;;;;;;;1.13;0.40;;;5.00;99.90;;;;;;5145895;27;20526;-57
2021/12/29 02:42:41;;;;;;;1.02;0.32;;;5.10;99.90;;;;;;5125347;27;20986;-57
2021/12/29 02:45:22;;;;;;;0.75;0.40;;;5.10;99.90;;;;;;5083587;28;20672;-58
2021/12/29 02:48:02;;;;;;;0.30;0.30;;;5.10;99.90;;;;;;5084605;27;20585;-58
2021/12/29 02:50:42;;;;;;;0.20;0.10;;;5.20;99.90;;;;;;5084742;28;21181;-57
2021/12/29 02:53:22;;;;;;;0.43;0.20;;;5.20;99.90;;;;;;5084272;27;20663;-58
2021/12/29 02:56:02;;;;;;;0.20;0.20;;;5.20;99.90;;;;;;5145417;27;20535;-57
2021/12/29 02:58:42;;;;;;;1.08;0.20;;;5.30;99.90;;;;;;5083751;28;20684;-58
2021/12/29 03:01:21;;;;;;;1.13;0.30;;;5.30;99.90;;;;;;5146120;27;21295;-58
2021/12/29 03:04:07;;;;;;;0.30;0.30;;;5.30;99.90;;;;;;5103324;27;21213;-56
2021/12/29 03:06:46;;;;;;;0.10;0.10;;;5.40;99.90;;;;;;5104669;27;20545;-59
2021/12/29 03:09:26;;;;;;;0.55;0.10;;;5.40;99.90;;;;;;5085127;28;20683;-57
2021/12/29 03:12:06;;;;;;;0.00;0.00;;;5.40;99.90;;;;;;5085002;28;20651;-57
2021/12/29 03:14:53;;;;;;;0.10;0.10;;;5.40;99.90;;;;;;5144967;27;20530;-58
2021/12/29 03:17:33;;;;;;;0.10;0.10;;;5.50;99.90;;;;;;5157231;27;20544;-58
2021/12/29 03:20:14;;;;;;;1.98;0.20;;;5.40;99.90;;;;;;5104875;27;20681;-58
2021/12/29 03:22:54;;;;;;;1.45;0.10;;;5.50;99.90;;;;;;5104367;27;20546;-58
2021/12/29 03:25:34;;;;;;;0.22;0.10;;;5.50;99.90;;;;;;5102579;27;20530;-56
2021/12/29 03:28:14;;;;;;;0.43;0.22;;;5.50;99.90;;;;;;5084082;28;20551;-57
2021/12/29 03:30:56;;;;;;;0.10;0.00;;;5.60;99.90;;;;;;5083879;28;20656;-57
2021/12/29 03:33:35;;;;;;;0.22;0.08;;;5.50;99.90;;;;;;5103720;27;21195;-56
2021/12/29 03:36:18;;;;;;;0.70;0.10;;;5.50;99.90;;;;;;5083248;28;20676;-58
2021/12/29 03:38:58;;;;;;;0.10;0.10;;;5.50;99.90;;;;;;5084739;28;20651;-58
2021/12/29 03:41:38;;;;;;;0.30;0.10;;;5.40;99.90;;;;;;5084495;28;20664;-58
2021/12/29 03:44:18;;;;;;;0.25;0.10;;;5.40;99.90;;;;;;5103695;27;20666;-57
2021/12/29 03:46:57;;;;;;;1.52;0.20;;;5.40;99.90;;;;;;5084161;28;20664;-57
2021/12/29 03:49:39;;;;;;;0.10;0.10;;;5.30;99.90;;;;;;5104547;27;20658;-58
2021/12/29 03:52:19;;;;;;;0.65;0.50;;;5.20;99.90;;;;;;5104341;27;20538;-57
2021/12/29 03:54:58;;;;;;;0.20;0.20;;;5.10;99.90;;;;;;5124136;27;20536;-57
2021/12/29 03:57:39;;;;;;;0.10;0.10;;;5.00;99.90;;;;;;5084740;28;20683;-58
2021/12/29 04:00:20;;;;;;;0.10;0.10;;;5.00;99.90;;;;;;5085072;27;20908;-57
2021/12/29 04:03:00;;;;;;;0.40;0.38;;;5.00;99.90;;;;;;5084200;27;20672;-57
2021/12/29 04:05:40;;;;;;;0.20;0.13;;;5.00;99.90;;;;;;5083594;28;20668;-57
2021/12/29 04:08:20;;;;;;;0.20;0.20;;;5.10;99.90;;;;;;5105475;27;21190;-58
2021/12/29 04:10:59;;;;;;;0.00;0.00;;;5.20;99.90;;;;;;5145944;27;20538;-57
2021/12/29 04:13:39;;;;;;;0.30;0.30;;;5.20;99.90;;;;;;5145682;27;20692;-58
2021/12/29 04:16:19;;;;;;;0.13;0.10;;;5.30;99.90;;;;;;5083558;27;20548;-58
2021/12/29 04:19:14;;;;;;;1.33;0.47;;;5.40;99.90;;;;;;5105099;27;20890;-59
2021/12/29 04:21:53;;;;;;;0.25;0.25;;;5.40;99.90;;;;;;5084468;28;20663;-57
2021/12/29 04:24:33;;;;;;;0.80;0.20;;;5.40;99.90;;;;;;5124083;27;20535;-57
2021/12/29 04:27:13;;;;;;;0.13;0.13;;;5.50;99.90;;;;;;5145916;27;20696;-57
2021/12/29 04:29:53;;;;;;;0.20;0.20;;;5.40;99.90;;;;;;5104768;27;20997;-58
2021/12/29 04:32:32;;;;;;;0.30;0.20;;;5.20;99.90;;;;;;5084553;27;21220;-58
2021/12/29 04:35:12;;;;;;;1.38;0.30;;;5.20;99.90;;;;;;5083578;27;20569;-57
2021/12/29 04:37:52;;;;;;;0.63;0.05;;;5.20;99.90;;;;;;5105006;27;20674;-59
2021/12/29 04:40:32;;;;;;;0.50;0.10;;;5.30;99.90;;;;;;5124852;27;20528;-58
2021/12/29 04:43:11;;;;;;;1.60;0.20;;;5.40;99.90;;;;;;5084509;27;21220;-58
2021/12/29 04:45:52;;;;;;;0.85;0.22;;;5.40;99.90;;;;;;5084027;28;20656;-57
2021/12/29 04:48:37;;;;;;;0.45;0.30;;;5.30;99.90;;;;;;5084499;27;21084;-57
2021/12/29 04:51:24;;;;;;;0.20;0.00;;;5.40;99.90;;;;;;5084477;28;20668;-57
2021/12/29 04:54:06;;;;;;;0.00;0.00;;;5.40;99.90;;;;;;5084149;27;20687;-58
2021/12/29 04:56:45;;;;;;;0.13;0.00;;;5.40;99.90;;;;;;5124278;27;20677;-57
2021/12/29 04:59:26;;;;;;;0.17;0.13;;;5.50;99.90;;;;;;5082294;27;20692;-58
2021/12/29 05:02:09;;;;;;;0.38;0.20;;;5.50;99.90;;;;;;5104150;27;20682;-57
2021/12/29 05:04:58;;;;;;;0.28;0.28;;;5.50;99.90;;;;;;5083493;28;20664;-57
2021/12/29 05:10:36;;;;;;;2.70;0.30;;;5.50;99.90;;;;;;5102075;27;20690;-59
2021/12/29 05:13:16;;;;;;;0.60;0.30;;;5.60;99.90;;;;;;5083487;27;20999;-57
2021/12/29 05:15:57;;;;;;;0.38;0.20;;;5.60;99.90;;;;;;5083407;28;20672;-57
2021/12/29 05:18:37;;;;;;;0.10;0.10;;;5.70;99.90;;;;;;5085492;28;20684;-57
2021/12/29 05:21:17;;;;;;;0.00;0.00;;;5.70;99.90;;;;;;5084576;27;20959;-58
2021/12/29 05:23:57;;;;;;;0.22;0.20;;;5.70;99.90;;;;;;5104474;27;20549;-58
2021/12/29 05:26:38;;;;;;;0.55;0.20;;;5.70;99.90;;;;;;5083851;28;20675;-58
2021/12/29 05:29:18;;;;;;;0.32;0.20;;;5.70;99.90;;;;;;5146241;27;21185;-58
2021/12/29 05:31:58;;;;;;;0.20;0.20;;;5.70;99.90;;;;;;5125658;27;20541;-58
2021/12/29 05:34:38;;;;;;;0.57;0.30;;;5.80;99.90;;;;;;5082958;27;20539;-58
2021/12/29 05:37:17;;;;;;;0.10;0.10;;;5.80;99.90;;;;;;5084482;28;20684;-58
2021/12/29 05:39:57;;;;;;;0.30;0.30;;;5.80;99.90;;;;;;5084438;27;20535;-57
2021/12/29 05:42:37;;;;;;;0.68;0.68;;;5.90;99.90;;;;;;5145782;27;21190;-57
2021/12/29 05:45:18;;;;;;;0.00;0.00;;;5.90;99.90;;;;;;5083331;27;20672;-58
2021/12/29 05:47:57;;;;;;;0.13;0.10;;;6.00;99.90;;;;;;5146435;27;20554;-59
2021/12/29 05:50:37;;;;;;;0.30;0.30;;;6.00;99.90;;;;;;5105174;27;21103;-58
2021/12/29 05:53:16;;;;;;;0.52;0.40;;;6.00;99.90;;;;;;5084401;27;20535;-58
2021/12/29 05:55:56;;;;;;;0.20;0.20;;;6.10;99.90;;;;;;5145865;27;21198;-58
2021/12/29 05:58:37;;;;;;;0.20;0.10;;;6.10;99.90;;;;;;5084866;28;20692;-58
2021/12/29 06:01:16;;;;;;;0.05;0.05;;;6.20;99.90;;;;;;5146121;27;20653;-58
2021/12/29 06:03:56;;;;;;;0.20;0.00;;;6.20;99.90;;;;;;5126645;27;20663;-57
2021/12/29 06:06:36;;;;;;;0.35;0.35;;;6.20;99.90;;;;;;5084094;27;20696;-58
2021/12/29 06:09:15;;;;;;;0.28;0.28;;;6.20;99.90;;;;;;5145974;27;21027;-58
2021/12/29 06:11:55;;;;;;;0.40;0.40;;;6.30;99.90;;;;;;5084677;27;21096;-57
2021/12/29 06:14:35;;;;;;;0.30;0.30;;;6.30;99.90;;;;;;5083736;27;20555;-58
2021/12/29 06:17:15;;;;;;;0.20;0.20;;;6.30;99.90;;;;;;5084144;27;20551;-58
2021/12/29 06:19:56;;;;;;;1.17;0.00;;;6.30;99.90;;;;;;5145962;27;20681;-58
2021/12/29 06:22:36;;;;;;;0.10;0.10;;;6.30;99.90;;;;;;5105389;27;20595;-58
2021/12/29 06:25:20;;;;;;;0.20;0.20;;;6.30;99.90;;;;;;5124552;27;20536;-58
2021/12/29 06:27:59;;;;;;;0.40;0.40;;;6.30;99.90;;;;;;5083872;28;20675;-59
2021/12/29 06:30:39;;;;;;;0.40;0.40;;;6.40;99.90;;;;;;5145491;27;20665;-57
2021/12/29 06:33:19;;;;;;;0.15;0.15;;;6.40;99.90;;;;;;5145719;27;21019;-57
2021/12/29 06:35:58;;;;;;;0.25;0.25;;;6.40;99.90;;;;;;5124657;27;20531;-58
2021/12/29 06:38:38;;;;;;;0.10;0.10;;;6.40;99.90;;;;;;5125396;27;20548;-57
2021/12/29 06:41:18;;;;;;;0.20;0.20;;;6.40;99.90;;;;;;5084118;27;20539;-57
2021/12/29 06:43:58;;;;;;;0.25;0.10;;;6.40;99.90;;;;;;5124595;27;20552;-57
2021/12/29 06:46:38;;;;;;;0.22;0.22;;;6.30;99.90;;;;;;5083903;28;21043;-58
2021/12/29 06:49:18;;;;;;;0.28;0.28;;;6.40;99.90;;;;;;5125342;27;21093;-57
2021/12/29 06:51:57;;;;;;;1.15;0.30;;;6.30;99.90;;;;;;5085002;27;20559;-57
2021/12/29 06:54:38;;;;;;;0.50;0.30;;;6.40;99.90;;;;;;5083505;27;20539;-57
2021/12/29 06:57:17;;;;;;;0.10;0.10;;;6.40;99.90;;;;;;5084791;27;20557;-58
2021/12/29 06:59:57;;;;;;;0.50;0.10;;;6.40;99.90;;;;;;5084291;27;20536;-57
2021/12/29 07:02:37;;;;;;;0.25;0.25;;;6.40;99.90;;;;;;5105108;27;21190;-59
2021/12/29 07:05:17;;;;;;;0.45;0.20;;;6.40;99.90;;;;;;5103760;27;20666;-58
2021/12/29 07:07:57;;;;;;;0.20;0.15;;;6.40;99.90;;;;;;5160451;27;20557;-57
2021/12/29 07:10:36;;;;;;;0.20;0.13;;;6.40;99.90;;;;;;5084113;27;20541;-58
2021/12/29 07:13:16;;;;;;;0.30;0.30;;;6.40;99.90;;;;;;5104536;27;20567;-58
2021/12/29 07:15:56;;;;;;;0.30;0.30;;;6.40;99.90;;;;;;5104152;27;20658;-58
2021/12/29 07:18:36;;;;;;;0.38;0.20;;;6.40;99.90;;;;;;5145001;27;20551;-58
2021/12/29 07:21:16;;;;;;;0.57;0.30;;;6.40;99.90;;;;;;5083883;27;20679;-57
2021/12/29 07:23:57;;;;;;;0.10;0.10;;;6.40;99.90;;;;;;5104234;27;20546;-57
2021/12/29 07:26:37;;;;;;;1.45;0.10;;;6.50;99.90;;;;;;5083729;27;21137;-58
2021/12/29 07:29:17;;;;;;;0.35;0.10;;;6.50;99.90;;;;;;5124357;27;20589;-57
2021/12/29 07:31:57;;;;;;;0.28;0.20;;;6.50;99.90;;;;;;5084776;27;20543;-59
2021/12/29 07:34:37;;;;;;;0.57;0.50;;;6.50;99.90;;;;;;5083251;27;20535;-57
2021/12/29 07:37:16;;;;;;;0.20;0.20;;;6.50;99.90;;;;;;5084510;28;21216;-58
2021/12/29 07:39:56;;;;;;;0.40;0.40;;;6.50;99.90;;;;;;5084436;27;21076;-57
2021/12/29 07:42:37;;;;;;;0.75;0.25;;;6.60;99.90;;;;;;5077457;27;20557;-58
2021/12/29 07:45:18;;;;;;;1.00;0.20;;;6.60;99.90;;;;;;5122871;27;20540;-57
2021/12/29 07:47:57;;;;;;;0.55;0.20;;;6.60;99.90;;;;;;5122083;27;21129;-57
2021/12/29 07:50:38;;;;;;;1.02;0.60;;;6.60;99.90;;;;;;5146097;27;20535;-58
2021/12/29 07:53:17;;;;;;;0.10;0.10;;;6.60;99.90;;;;;;5146357;27;20543;-58
2021/12/29 07:55:57;;;;;;;0.15;0.10;;;6.60;99.90;;;;;;5084765;27;20541;-57
2021/12/29 07:58:36;;;;;;;0.10;0.10;;;6.60;99.90;;;;;;5084959;27;20556;-58
2021/12/29 08:01:16;;;;;;;0.50;0.50;;;6.60;99.90;;;;;;5125327;27;20536;-58
2021/12/29 08:04:05;;;;;;;0.40;0.40;;;6.60;99.90;;;;;;5082795;27;20543;-56
2021/12/29 08:06:45;;;;;;;0.68;0.68;;;6.60;99.90;;;;;;5103046;27;20538;-57
2021/12/29 08:09:24;;;;;;;0.40;0.40;;;6.70;99.90;;;;;;5083990;27;21072;-57
2021/12/29 08:12:05;;;;;;;0.20;0.20;;;6.70;99.90;;;;;;5138339;27;20591;-57
2021/12/29 08:14:45;;;;;;;0.80;0.50;;;6.70;99.90;;;;;;5103133;27;21090;-56
2021/12/29 08:17:25;;;;;;;1.08;1.08;;;6.80;99.90;;;;;;5084245;27;20663;-56
2021/12/29 08:20:06;;;;;;;1.42;1.38;;;6.80;99.90;;;;;;5083395;28;20691;-57
2021/12/29 08:22:46;;;;;;;0.70;0.70;;;6.80;99.90;;;;;;5073540;27;20705;-56
2021/12/29 08:25:26;;;;;;;0.45;0.45;;;6.80;99.90;;;;;;5123836;27;21658;-58
2021/12/29 08:28:06;;;;;;;0.30;0.30;;;6.80;99.90;;;;;;5084447;28;20671;-56
2021/12/29 08:30:45;;;;;;;2.00;1.90;;;6.80;99.90;;;;;;5084547;28;20667;-57
2021/12/29 08:33:25;;;;;;;0.60;0.50;;;6.80;99.90;;;;;;5083680;27;20555;-57
2021/12/29 08:36:06;;;;;;;0.35;0.30;;;6.80;99.90;;;;;;5141343;27;20689;-58
2021/12/29 08:38:47;;;;;;;0.28;0.20;;;6.80;99.90;;;;;;5070131;27;20587;-57
2021/12/29 08:41:26;;;;;;;0.40;0.40;;;6.80;99.90;;;;;;5103303;27;20693;-58
2021/12/29 08:44:06;;;;;;;0.30;0.30;;;6.80;99.90;;;;;;5084104;27;20687;-57
2021/12/29 08:46:47;;;;;;;0.47;0.47;;;6.80;99.90;;;;;;5145999;27;21213;-57
2021/12/29 08:49:27;;;;;;;1.23;0.82;;;6.90;99.90;;;;;;5146098;27;20669;-57
2021/12/29 08:52:07;;;;;;;0.80;0.40;;;6.90;99.90;;;;;;5084671;28;21097;-58
2021/12/29 08:54:47;;;;;;;0.85;0.68;;;6.90;99.90;;;;;;5145180;27;20538;-57
2021/12/29 08:57:28;;;;;;;0.60;0.60;;;6.90;99.90;;;;;;5084906;27;21056;-57
2021/12/29 09:00:11;;;;;;;0.70;0.70;;;6.90;99.90;;;;;;5103711;27;20670;-58
2021/12/29 09:02:51;;;;;;;0.50;0.50;;;7.00;99.90;;;;;;5084289;27;20552;-57
2021/12/29 09:05:30;;;;;;;0.47;0.47;;;7.00;99.90;;;;;;5083917;27;20565;-57
2021/12/29 09:08:09;;;;;;;1.58;0.90;;;7.00;99.90;;;;;;5084230;28;20660;-57
2021/12/29 09:10:49;;;;;;;0.60;0.60;;;7.10;99.90;;;;;;5084671;28;21038;-57
2021/12/29 09:13:29;;;;;;;0.75;0.60;;;7.10;99.90;;;;;;5084007;28;20679;-57
2021/12/29 09:16:10;;;;;;;1.45;1.00;;;7.20;99.90;;;;;;5084493;27;21172;-57
2021/12/29 09:18:50;;;;;;;3.75;0.70;;;7.20;99.90;;;;;;5104864;27;20669;-57
2021/12/29 09:21:32;;;;;;;0.90;0.82;;;7.20;99.90;;;;;;5085031;27;20547;-57
2021/12/29 09:24:13;;;;;;;1.70;0.60;;;7.20;99.90;;;;;;5103955;27;20678;-57
2021/12/29 09:26:54;;;;;;;0.60;0.60;;;7.30;99.90;;;;;;5084142;27;21076;-57
2021/12/29 09:29:35;;;;;;;2.08;0.95;;;7.20;99.90;;;;;;5145967;27;20654;-57
2021/12/29 09:32:14;;;;;;;1.20;1.10;;;7.20;99.90;;;;;;5084314;28;21217;-58
2021/12/29 09:34:57;;;;;;;0.93;0.60;;;7.30;99.90;;;;;;5144667;27;20550;-57
2021/12/29 09:37:37;;;;;;;0.47;0.32;;;7.30;99.90;;;;;;5084193;27;21001;-57
2021/12/29 09:40:19;;;;;;;0.85;0.85;;;7.30;99.90;;;;;;5146083;27;20588;-57
2021/12/29 09:42:59;;;;;;;0.40;0.40;;;7.40;99.90;;;;;;5084384;27;20563;-58
2021/12/29 09:45:39;;;;;;;2.25;0.75;;;7.40;99.90;;;;;;5103572;27;21204;-57
2021/12/29 09:48:19;;;;;;;1.35;0.60;;;7.50;99.90;;;;;;5104468;27;20654;-57
2021/12/29 09:50:58;;;;;;;1.15;0.52;;;7.60;99.90;;;;;;5104709;27;20677;-57
2021/12/29 09:53:38;;;;;;;0.70;0.52;;;7.60;99.90;;;;;;5083901;27;20588;-57
2021/12/29 09:56:18;;;;;;;1.15;0.70;;;7.70;99.90;;;;;;5084198;28;20565;-57
2021/12/29 09:58:59;;;;;;;1.23;0.88;;;7.80;99.90;;;;;;5105059;27;20549;-57
2021/12/29 10:01:39;;;;;;;1.80;0.80;;;7.80;99.90;;;;;;5145978;27;20535;-57
2021/12/29 10:04:19;;;;;;;0.63;0.63;;;7.90;99.90;;;;;;5077873;27;20695;-57
2021/12/29 10:06:58;;;;;;;1.10;1.10;;;7.80;99.90;;;;;;5142435;27;21213;-57
2021/12/29 10:09:38;;;;;;;0.65;0.65;;;7.90;99.90;;;;;;5083587;27;21141;-58
2021/12/29 10:12:20;;;;;;;1.08;1.08;;;8.00;99.90;;;;;;5110204;27;20554;-57
2021/12/29 10:15:02;;;;;;;1.17;0.73;;;8.00;99.90;;;;;;5145210;27;20535;-58
2021/12/29 10:17:41;;;;;;;1.15;0.70;;;8.10;99.90;;;;;;5146404;27;20657;-57
2021/12/29 10:20:21;;;;;;;1.38;0.98;;;8.20;99.90;;;;;;5084184;27;20543;-57
2021/12/29 10:23:01;;;;;;;0.80;0.80;;;8.30;99.90;;;;;;5105671;27;20566;-57
2021/12/29 10:25:40;;;;;;;0.73;0.68;;;8.40;99.90;;;;;;5104357;27;20654;-58
2021/12/29 10:28:23;;;;;;;0.77;0.77;;;8.50;99.90;;;;;;5105880;27;20673;-58
2021/12/29 10:31:06;;;;;;;1.00;1.00;;;8.50;99.90;;;;;;5084360;28;21030;-58
2021/12/29 10:33:48;;;;;;;1.00;0.70;;;8.60;99.90;;;;;;5083734;27;20715;-58
2021/12/29 10:36:30;;;;;;;0.80;0.65;;;8.70;99.90;;;;;;5084760;27;20569;-57
2021/12/29 10:39:13;;;;;;;0.85;0.85;;;8.80;99.90;;;;;;5082902;28;20544;-57
2021/12/29 10:41:56;;;;;;;1.48;1.38;;;8.90;99.90;;;;;;5105010;27;21646;-57
2021/12/29 10:44:37;;;;;;;0.73;0.73;;;9.00;99.90;;;;;;5139759;27;20609;-57
2021/12/29 10:47:18;;;;;;;0.65;0.40;;;9.20;99.90;;;;;;5103562;27;20562;-57
2021/12/29 10:50:01;;;;;;;0.60;0.60;;;9.30;99.90;;;;;;5102558;27;20665;-57
2021/12/29 10:52:42;;;;;;;0.93;0.93;;;9.30;99.90;;;;;;5116655;27;20565;-57
2021/12/29 10:55:25;;;;;;;0.82;0.82;;;9.30;99.90;;;;;;5080677;27;20555;-57
2021/12/29 10:58:08;;;;;;;0.57;0.47;;;9.40;99.90;;;;;;5079671;28;21046;-57
2021/12/29 11:00:50;;;;;;;0.50;0.50;;;9.40;99.90;;;;;;5152008;27;20557;-57
2021/12/29 11:03:32;;;;;;;0.93;0.93;;;9.50;99.90;;;;;;5142169;27;20681;-56
2021/12/29 11:06:13;;;;;;;0.90;0.57;;;9.50;99.90;;;;;;5101022;27;20538;-57
2021/12/29 11:08:55;;;;;;;0.80;0.80;;;9.60;99.90;;;;;;5083548;28;20683;-57
2021/12/29 11:11:37;;;;;;;0.80;0.80;;;9.70;99.90;;;;;;5124155;27;20536;-57
2021/12/29 11:14:18;;;;;;;1.33;1.23;;;9.70;99.90;;;;;;5135000;27;20677;-57
2021/12/29 11:17:06;;;;;;;2.03;1.13;;;9.60;99.90;;;;;;5083243;28;20860;-57
2021/12/29 11:19:52;;;;;;;0.75;0.50;;;9.60;99.90;;;;;;5078036;27;20560;-57
2021/12/29 11:22:32;;;;;;;1.10;1.00;;;9.50;99.90;;;;;;5144459;27;20554;-57
2021/12/29 11:25:11;;;;;;;1.45;1.33;;;9.60;99.90;;;;;;5082172;27;20902;-56
2021/12/29 11:27:51;;;;;;;2.22;1.50;;;9.60;99.90;;;;;;5083555;28;20664;-56
2021/12/29 11:30:31;;;;;;;2.50;1.20;;;9.60;99.90;;;;;;5082469;27;20569;-56
2021/12/29 11:33:12;;;;;;;3.13;2.92;;;9.50;99.90;;;;;;5142160;27;20693;-56
2021/12/29 11:35:53;;;;;;;1.08;0.80;;;9.50;99.90;;;;;;5102169;27;20543;-57
2021/12/29 11:38:35;;;;;;;1.20;1.20;;;9.40;99.90;;;;;;5083069;28;20675;-57
2021/12/29 11:41:17;;;;;;;1.35;1.25;;;9.30;99.90;;;;;;5103090;27;20534;-57
2021/12/29 11:43:56;;;;;;;1.23;0.68;;;9.30;99.90;;;;;;5098251;27;20549;-57
2021/12/29 11:46:37;;;;;;;2.03;1.85;;;9.40;99.90;;;;;;5079741;27;20547;-57
2021/12/29 11:49:19;;;;;;;1.20;1.10;;;9.40;99.90;;;;;;5082981;27;20725;-58
2021/12/29 11:52:08;;;;;;;2.13;1.00;;;9.50;99.90;;;;;;5136046;27;20709;-57
2021/12/29 11:54:54;;;;;;;2.17;2.05;;;9.60;99.90;;;;;;5081149;28;20691;-57
2021/12/29 11:57:35;;;;;;;1.63;1.52;;;9.70;99.90;;;;;;5143645;27;20673;-57
2021/12/29 12:00:17;;;;;;;1.48;1.10;;;9.70;99.90;;;;;;5101108;27;20567;-57
2021/12/29 12:03:07;;;;;;;1.70;1.60;;;9.70;99.90;;;;;;5151066;27;20549;-57
2021/12/29 12:05:48;;;;;;;1.50;1.40;;;9.80;99.90;;;;;;5100207;27;20695;-57
2021/12/29 12:08:28;;;;;;;1.42;1.33;;;9.80;99.90;;;;;;5082218;27;20588;-57
2021/12/29 12:11:24;;;;;;;1.13;1.13;;;9.90;99.90;;;;;;5103371;27;20697;-57
2021/12/29 12:14:05;;;;;;;1.35;1.25;;;9.90;99.90;;;;;;5140013;27;20989;-57
2021/12/29 12:16:54;;;;;;;0.60;0.60;;;9.90;99.90;;;;;;5144491;27;20552;-57
2021/12/29 12:19:34;;;;;;;0.73;0.73;;;10.00;99.90;;;;;;5078538;28;20620;-57
2021/12/29 12:22:16;;;;;;;0.88;0.88;;;10.10;99.90;;;;;;5152770;27;20547;-57
2021/12/29 12:25:03;;;;;;;0.68;0.68;;;10.10;99.90;;;;;;5123054;27;20668;-58
2021/12/29 12:27:44;;;;;;;1.20;1.10;;;10.10;99.90;;;;;;5143435;27;21081;-57
2021/12/29 12:30:26;;;;;;;0.60;0.60;;;10.00;99.90;;;;;;5108721;27;21377;-57
2021/12/29 12:33:12;;;;;;;1.10;1.10;;;10.00;99.90;;;;;;5081582;28;20566;-57
2021/12/29 12:35:53;;;;;;;2.65;2.45;;;10.10;99.90;;;;;;5081941;28;20559;-57
2021/12/29 12:38:35;;;;;;;3.38;3.08;;;10.10;99.90;;;;;;5098374;27;20922;-57
2021/12/29 12:41:16;;;;;;;2.22;2.03;;;10.00;99.90;;;;;;5123644;27;20680;-57
2021/12/29 12:43:58;;;;;;;1.30;1.20;;;10.00;99.90;;;;;;5072085;27;20712;-57
2021/12/29 12:46:39;;;;;;;0.95;0.82;;;9.90;99.90;;;;;;5105663;27;20568;-57
2021/12/29 12:49:21;;;;;;;2.40;2.28;;;9.80;99.90;;;;;;5099771;27;21289;-57
2021/12/29 12:52:04;;;;;;;0.80;0.80;;;9.70;99.90;;;;;;5128739;27;20480;-57
2021/12/29 12:54:49;;;;;;;0.55;0.55;;;9.60;99.90;;;;;;5067482;27;20594;-57
2021/12/29 12:57:33;;;;;;;1.15;1.15;;;9.50;99.90;;;;;;5082169;27;21098;-57
2021/12/29 13:00:19;;;;;;;1.23;1.02;;;9.40;99.90;;;;;;5132610;27;20590;-57
2021/12/29 13:03:00;;;;;;;2.20;0.82;;;9.10;99.90;;;;;;5077914;28;20711;-58
2021/12/29 13:05:43;;;;;;;1.55;0.95;;;8.90;99.90;;;;;;5130273;27;20727;-57
2021/12/29 13:08:24;;;;;;;0.52;0.38;;;8.80;99.90;;;;;;5078792;28;20603;-57
2021/12/29 13:11:07;;;;;;;0.40;0.40;;;8.80;99.90;;;;;;5081100;28;21038;-57
2021/12/29 13:13:51;;;;;;;0.90;0.90;;;8.80;99.90;;;;;;5144185;27;21070;-57
2021/12/29 13:16:31;;;;;;;0.95;0.73;;;8.80;99.90;;;;;;5084181;27;20543;-57
2021/12/29 13:19:10;;;;;;;0.60;0.60;;;8.70;99.90;;;;;;5146250;27;20630;-57
2021/12/29 13:21:50;;;;;;;1.50;1.40;;;8.60;99.90;;;;;;5104398;27;20530;-58
2021/12/29 13:24:31;;;;;;;1.30;1.25;;;8.50;99.90;;;;;;5103365;27;20553;-57
2021/12/29 13:27:11;;;;;;;2.97;2.50;;;8.40;99.90;;;;;;5148390;27;20558;-57
2021/12/29 13:30:02;;;;;;;1.73;1.63;;;8.30;99.90;;;;;;5103360;27;20666;-58
2021/12/29 13:32:53;;;;;;;1.55;1.45;;;8.30;99.90;;;;;;5103767;27;21214;-57
2021/12/29 13:35:35;;;;;;;1.42;1.33;;;8.30;99.90;;;;;;5083125;28;20692;-57
2021/12/29 13:38:17;;;;;;;1.40;1.25;;;8.20;99.90;;;;;;5104793;27;20529;-57
2021/12/29 13:41:00;;;;;;;0.57;0.57;;;8.20;99.90;;;;;;5084457;27;20543;-58
2021/12/29 13:43:43;;;;;;;1.80;1.70;;;8.20;99.90;;;;;;5124019;27;20544;-57
2021/12/29 13:46:25;;;;;;;2.13;1.63;;;8.30;99.90;;;;;;5134150;27;21106;-57
2021/12/29 13:49:10;;;;;;;3.05;2.20;;;8.30;99.90;;;;;;5079916;28;20699;-57
2021/12/29 13:51:50;;;;;;;3.78;3.30;;;8.30;99.90;;;;;;5083197;27;20715;-57
2021/12/29 13:54:31;;;;;;;2.13;1.92;;;8.30;99.90;;;;;;5137706;27;20666;-57
2021/12/29 13:57:11;;;;;;;1.35;1.00;;;8.20;99.90;;;;;;5083137;28;21047;-58
2021/12/29 13:59:51;;;;;;;1.05;1.00;;;8.10;99.90;;;;;;5076480;27;21043;-58
2021/12/29 14:02:30;;;;;;;2.65;2.40;;;8.00;99.90;;;;;;5063660;27;20693;-57
2021/12/29 14:05:11;;;;;;;1.85;1.75;;;8.00;99.90;;;;;;5080762;28;20687;-57
2021/12/29 14:07:51;;;;;;;1.75;1.40;;;7.90;99.90;;;;;;5139061;27;20658;-58
2021/12/29 14:10:31;;;;;;;1.42;1.38;;;7.90;99.90;;;;;;5083428;28;21172;-58
2021/12/29 14:15:04;;;;;;;2.63;2.03;;;7.80;99.90;;;;;;5101283;27;20558;-58